createdAt,value
2019-02-02T00:00:28.492Z,21.50
2019-02-02T00:01:28.506Z,23.50
2019-02-02T00:02:28.501Z,23.40
2019-02-02T00:03:28.461Z,22.80
2019-02-02T00:04:28.449Z,23.20
2019-02-02T00:05:28.437Z,22.40
2019-02-02T00:06:28.427Z,22.60
2019-02-02T00:07:28.441Z,21.10
2019-02-02T00:08:28.407Z,22.30
2019-02-02T00:09:28.404Z,22.30
2019-02-02T00:10:28.379Z,22.50
2019-02-02T00:11:28.395Z,23.40
2019-02-02T00:12:28.392Z,23.20
2019-02-02T00:13:28.348Z,24.60
2019-02-02T00:14:28.341Z,24.90
2019-02-02T00:15:28.328Z,22.50
2019-02-02T00:16:28.316Z,23.30
2019-02-02T00:17:28.327Z,22.40
2019-02-02T00:18:28.341Z,22.10
2019-02-02T00:19:28.303Z,21.90
2019-02-02T00:20:28.272Z,21.90
2019-02-02T00:21:28.261Z,22.00
2019-02-02T00:22:28.272Z,23.70
2019-02-02T00:23:28.243Z,23.00
2019-02-02T00:24:28.223Z,22.40
2019-02-02T00:25:28.218Z,21.70
2019-02-02T00:26:28.233Z,22.30
2019-02-02T00:27:28.194Z,25.00
2019-02-02T00:28:28.222Z,23.10
2019-02-02T00:29:28.186Z,22.90
2019-02-02T00:30:28.167Z,21.40
2019-02-02T00:31:28.147Z,23.90
2019-02-02T00:32:28.167Z,23.20
2019-02-02T00:33:28.154Z,26.00
2019-02-02T00:34:28.122Z,26.10
2019-02-02T00:35:28.119Z,25.30
2019-02-02T00:36:28.114Z,23.90
2019-02-02T00:37:28.112Z,24.80
2019-02-02T00:38:28.068Z,23.60
2019-02-02T00:39:28.057Z,23.20
2019-02-02T00:40:28.079Z,25.50
2019-02-02T00:41:28.051Z,23.90
2019-02-02T00:42:28.085Z,22.20
2019-02-02T00:43:28.015Z,23.00
2019-02-02T00:44:28.002Z,22.20
2019-02-02T00:45:28.014Z,21.20
2019-02-02T00:46:28.000Z,20.10
2019-02-02T00:47:28.006Z,22.30
2019-02-02T00:48:27.977Z,20.30
2019-02-02T00:49:27.994Z,21.60
2019-02-02T00:50:27.946Z,22.30
2019-02-02T00:51:27.940Z,22.70
2019-02-02T00:52:27.933Z,21.30
2019-02-02T00:53:27.928Z,20.10
2019-02-02T00:54:27.897Z,19.70
2019-02-02T00:55:27.880Z,22.00
2019-02-02T00:56:27.873Z,19.10
2019-02-02T00:57:27.855Z,21.40
2019-02-02T00:58:27.873Z,18.50
2019-02-02T00:59:27.895Z,21.50
2019-02-02T01:00:27.859Z,19.60
2019-02-02T01:01:27.823Z,19.50
2019-02-02T01:02:27.800Z,20.50
2019-02-02T01:03:27.790Z,20.90
2019-02-02T01:04:27.810Z,21.40
2019-02-02T01:05:27.774Z,20.00
2019-02-02T01:06:27.765Z,19.70
2019-02-02T01:07:27.755Z,20.00
2019-02-02T01:08:27.741Z,20.60
2019-02-02T01:09:27.780Z,20.80
2019-02-02T01:10:27.744Z,19.50
2019-02-02T01:11:27.732Z,21.10
2019-02-02T01:12:27.691Z,22.30
2019-02-02T01:13:27.693Z,20.60
2019-02-02T01:14:27.671Z,19.70
2019-02-02T01:15:27.671Z,22.10
2019-02-02T01:16:27.679Z,20.00
2019-02-02T01:17:27.647Z,21.00
2019-02-02T01:18:27.625Z,20.30
2019-02-02T01:19:27.631Z,20.80
2019-02-02T01:20:27.608Z,18.80
2019-02-02T01:21:27.624Z,22.20
2019-02-02T01:22:27.597Z,20.40
2019-02-02T01:23:27.593Z,21.50
2019-02-02T01:24:27.556Z,27.90
2019-02-02T01:25:27.577Z,20.70
2019-02-02T01:26:27.564Z,18.40
2019-02-02T01:27:27.565Z,19.00
2019-02-02T01:28:27.508Z,19.20
2019-02-02T01:29:27.525Z,20.60
2019-02-02T01:30:27.489Z,21.40
2019-02-02T01:31:27.504Z,20.60
2019-02-02T01:32:27.484Z,20.40
2019-02-02T01:33:27.454Z,20.00
2019-02-02T01:34:27.479Z,19.60
2019-02-02T01:35:27.440Z,21.50
2019-02-02T01:36:27.424Z,21.00
2019-02-02T01:37:27.417Z,20.80
2019-02-02T01:38:27.406Z,21.40
2019-02-02T01:39:27.416Z,25.00
2019-02-02T01:40:27.409Z,21.60
2019-02-02T01:41:27.364Z,23.10
2019-02-02T01:42:27.354Z,23.30
2019-02-02T01:43:27.341Z,21.00
2019-02-02T01:44:27.330Z,21.40
2019-02-02T01:45:27.365Z,19.80
2019-02-02T01:46:27.314Z,19.60
2019-02-02T01:47:27.321Z,22.60
2019-02-02T01:48:27.311Z,23.10
2019-02-02T01:49:27.296Z,25.80
2019-02-02T01:50:27.298Z,26.80
2019-02-02T01:51:27.264Z,26.70
2019-02-02T01:52:27.241Z,25.80
2019-02-02T01:53:27.238Z,27.80
2019-02-02T01:54:27.278Z,33.80
2019-02-02T01:55:27.276Z,25.90
2019-02-02T01:56:27.208Z,27.40
2019-02-02T01:57:27.263Z,28.70
2019-02-02T01:58:27.200Z,28.10
2019-02-02T01:59:27.166Z,27.80
2019-02-02T02:00:27.180Z,29.80
2019-02-02T02:01:27.167Z,29.00
2019-02-02T02:02:27.135Z,31.30
2019-02-02T02:03:27.132Z,34.60
2019-02-02T02:04:27.119Z,27.60
2019-02-02T02:05:27.118Z,31.30
2019-02-02T02:06:27.113Z,30.90
2019-02-02T02:07:27.097Z,29.80
2019-02-02T02:08:27.082Z,33.10
2019-02-02T02:09:27.095Z,34.20
2019-02-02T02:10:27.046Z,34.60
2019-02-02T02:11:27.040Z,33.40
2019-02-02T02:12:27.042Z,36.80
2019-02-02T02:13:27.147Z,33.70
2019-02-02T02:14:27.008Z,35.10
2019-02-02T02:15:26.987Z,34.70
2019-02-02T02:16:26.975Z,34.10
2019-02-02T02:17:26.962Z,35.00
2019-02-02T02:18:27.008Z,33.30
2019-02-02T02:19:26.945Z,36.40
2019-02-02T02:20:26.932Z,35.20
2019-02-02T02:21:26.916Z,31.80
2019-02-02T02:22:26.908Z,34.60
2019-02-02T02:23:26.946Z,34.90
2019-02-02T02:24:26.892Z,33.20
2019-02-02T02:25:26.898Z,33.70
2019-02-02T02:26:26.863Z,30.40
2019-02-02T02:27:26.851Z,29.90
2019-02-02T02:28:28.391Z,39.30
2019-02-02T02:29:26.827Z,48.30
2019-02-02T02:30:26.855Z,40.90
2019-02-02T02:31:26.821Z,44.70
2019-02-02T02:32:26.829Z,40.60
2019-02-02T02:33:26.815Z,43.20
2019-02-02T02:34:26.771Z,46.80
2019-02-02T02:35:26.789Z,33.50
2019-02-02T02:36:26.748Z,39.30
2019-02-02T02:37:26.742Z,37.90
2019-02-02T02:38:26.750Z,41.60
2019-02-02T02:39:26.714Z,42.80
2019-02-02T02:40:26.742Z,40.80
2019-02-02T02:41:26.718Z,31.20
2019-02-02T02:42:26.681Z,38.30
2019-02-02T02:43:26.671Z,36.70
2019-02-02T02:44:26.659Z,37.70
2019-02-02T02:45:26.674Z,45.20
2019-02-02T02:46:26.636Z,36.40
2019-02-02T02:47:26.628Z,42.90
2019-02-02T02:48:26.620Z,35.50
2019-02-02T02:49:26.613Z,32.10
2019-02-02T02:50:26.648Z,34.00
2019-02-02T02:51:26.625Z,38.70
2019-02-02T02:52:26.568Z,49.70
2019-02-02T02:53:26.560Z,50.80
2019-02-02T02:54:26.551Z,47.30
2019-02-02T02:55:26.536Z,32.80
2019-02-02T02:56:26.560Z,44.00
2019-02-02T02:57:26.650Z,42.20
2019-02-02T02:58:26.507Z,45.30
2019-02-02T02:59:26.491Z,43.00
2019-02-02T03:00:26.485Z,48.20
2019-02-02T03:01:26.504Z,49.10
2019-02-02T03:02:26.516Z,48.30
2019-02-02T03:03:26.476Z,41.10
2019-02-02T03:04:26.444Z,41.80
2019-02-02T03:05:26.424Z,42.20
2019-02-02T03:06:26.418Z,38.70
2019-02-02T03:07:26.447Z,39.60
2019-02-02T03:08:26.391Z,40.90
2019-02-02T03:09:26.399Z,43.60
2019-02-02T03:10:26.369Z,53.90
2019-02-02T03:11:26.377Z,51.70
2019-02-02T03:12:26.373Z,45.20
2019-02-02T03:13:26.338Z,62.30
2019-02-02T03:14:26.356Z,59.00
2019-02-02T03:15:26.311Z,46.80
2019-02-02T03:16:26.301Z,61.40
2019-02-02T03:17:26.294Z,51.30
2019-02-02T03:18:26.301Z,53.10
2019-02-02T03:19:26.298Z,38.20
2019-02-02T03:20:26.260Z,40.20
2019-02-02T03:21:26.285Z,59.60
2019-02-02T03:22:26.236Z,58.50
2019-02-02T03:23:26.230Z,51.80
2019-02-02T03:24:26.381Z,47.20
2019-02-02T03:25:26.229Z,41.50
2019-02-02T03:26:26.188Z,40.80
2019-02-02T03:27:26.184Z,40.90
2019-02-02T03:28:26.170Z,41.40
2019-02-02T03:29:26.171Z,37.80
2019-02-02T03:30:26.163Z,41.40
2019-02-02T03:31:26.163Z,35.40
2019-02-02T03:32:26.128Z,45.40
2019-02-02T03:33:26.129Z,39.30
2019-02-02T03:34:26.143Z,42.70
2019-02-02T03:35:26.113Z,59.40
2019-02-02T03:36:26.076Z,45.00
2019-02-02T03:37:26.070Z,45.10
2019-02-02T03:38:26.054Z,47.20
2019-02-02T03:39:26.073Z,47.80
2019-02-02T03:40:26.061Z,50.10
2019-02-02T03:41:26.029Z,51.00
2019-02-02T03:42:26.011Z,55.70
2019-02-02T03:43:25.997Z,47.10
2019-02-02T03:44:25.994Z,47.60
2019-02-02T03:45:26.025Z,45.20
2019-02-02T03:46:26.005Z,42.80
2019-02-02T03:47:25.954Z,44.20
2019-02-02T03:48:25.945Z,40.20
2019-02-02T03:49:25.935Z,45.50
2019-02-02T03:50:25.969Z,43.50
2019-02-02T03:51:26.021Z,42.30
2019-02-02T03:52:25.914Z,40.90
2019-02-02T03:53:25.919Z,47.70
2019-02-02T03:54:25.880Z,38.70
2019-02-02T03:55:25.908Z,41.70
2019-02-02T03:56:25.867Z,47.20
2019-02-02T03:57:25.847Z,41.50
2019-02-02T03:58:25.836Z,66.30
2019-02-02T03:59:25.823Z,63.30
2019-02-02T04:00:25.853Z,63.20
2019-02-02T04:01:25.798Z,60.10
2019-02-02T04:02:25.798Z,52.70
2019-02-02T04:03:25.810Z,40.30
2019-02-02T04:04:25.764Z,34.70
2019-02-02T04:05:25.783Z,38.90
2019-02-02T04:06:25.749Z,31.50
2019-02-02T04:07:25.747Z,36.30
2019-02-02T04:08:25.725Z,33.70
2019-02-02T04:09:25.724Z,33.30
2019-02-02T04:10:25.741Z,33.30
2019-02-02T04:11:25.727Z,32.10
2019-02-02T04:12:25.679Z,36.80
2019-02-02T04:13:25.702Z,29.70
2019-02-02T04:14:25.657Z,30.80
2019-02-02T04:15:25.650Z,32.20
2019-02-02T04:16:25.662Z,32.10
2019-02-02T04:17:25.631Z,35.80
2019-02-02T04:18:25.609Z,44.20
2019-02-02T04:19:25.599Z,46.10
2019-02-02T04:20:25.604Z,39.20
2019-02-02T04:21:25.601Z,51.10
2019-02-02T04:22:25.566Z,43.90
2019-02-02T04:23:25.565Z,45.50
2019-02-02T04:24:25.597Z,53.50
2019-02-02T04:25:25.534Z,51.80
2019-02-02T04:26:25.525Z,54.10
2019-02-02T04:27:25.512Z,47.80
2019-02-02T04:28:25.500Z,50.50
2019-02-02T04:29:25.520Z,45.10
2019-02-02T04:30:25.478Z,71.80
2019-02-02T04:31:25.466Z,45.50
2019-02-02T04:32:25.452Z,36.90
2019-02-02T04:33:25.473Z,29.50
2019-02-02T04:34:25.462Z,50.40
2019-02-02T04:35:25.500Z,62.80
2019-02-02T04:36:25.417Z,51.90
2019-02-02T04:37:25.397Z,53.50
2019-02-02T04:38:25.394Z,58.00
2019-02-02T04:39:25.501Z,49.50
2019-02-02T04:40:25.412Z,37.00
2019-02-02T04:41:25.392Z,39.40
2019-02-02T04:42:25.342Z,41.20
2019-02-02T04:43:25.331Z,42.80
2019-02-02T04:44:25.332Z,50.50
2019-02-02T04:45:25.306Z,47.20
2019-02-02T04:46:25.328Z,40.40
2019-02-02T04:47:25.313Z,40.90
2019-02-02T04:48:25.279Z,42.80
2019-02-02T04:49:25.284Z,45.50
2019-02-02T04:50:25.257Z,42.40
2019-02-02T04:51:25.238Z,44.30
2019-02-02T04:52:25.262Z,48.80
2019-02-02T04:53:25.234Z,41.20
2019-02-02T04:54:25.242Z,40.40
2019-02-02T04:55:25.207Z,49.60
2019-02-02T04:56:25.226Z,82.20
2019-02-02T04:57:25.188Z,60.20
2019-02-02T04:58:25.184Z,47.50
2019-02-02T04:59:29.391Z,43.50
2019-02-02T05:00:25.156Z,48.90
2019-02-02T05:01:25.144Z,54.90
2019-02-02T05:02:25.118Z,40.40
2019-02-02T05:03:25.129Z,50.40
2019-02-02T05:04:25.125Z,57.40
2019-02-02T05:05:25.091Z,67.80
2019-02-02T05:06:25.079Z,94.70
2019-02-02T05:07:25.070Z,65.00
2019-02-02T05:08:25.063Z,92.30
2019-02-02T05:09:25.076Z,81.60
2019-02-02T05:10:25.028Z,82.00
2019-02-02T05:11:25.015Z,77.90
2019-02-02T05:12:25.003Z,61.00
2019-02-02T05:13:25.008Z,48.50
2019-02-02T05:14:25.034Z,43.30
2019-02-02T05:15:24.972Z,43.90
2019-02-02T05:16:24.958Z,42.10
2019-02-02T05:17:24.948Z,43.10
2019-02-02T05:18:24.968Z,42.50
2019-02-02T05:19:24.929Z,41.90
2019-02-02T05:20:24.917Z,39.80
2019-02-02T05:21:24.921Z,44.20
2019-02-02T05:22:24.932Z,44.60
2019-02-02T05:23:24.910Z,41.70
2019-02-02T05:24:24.873Z,43.50
2019-02-02T05:25:24.860Z,40.10
2019-02-02T05:26:24.855Z,40.90
2019-02-02T05:27:24.840Z,41.40
2019-02-02T05:28:24.851Z,34.20
2019-02-02T05:29:24.841Z,39.80
2019-02-02T05:30:24.807Z,39.50
2019-02-02T05:31:24.794Z,40.30
2019-02-02T05:32:24.785Z,37.80
2019-02-02T05:33:24.777Z,38.60
2019-02-02T05:34:24.792Z,51.40
2019-02-02T05:35:24.772Z,44.40
2019-02-02T05:36:24.738Z,37.10
2019-02-02T05:37:24.727Z,53.90
2019-02-02T05:38:24.748Z,36.90
2019-02-02T05:39:24.710Z,37.90
2019-02-02T05:40:24.695Z,31.40
2019-02-02T05:41:24.717Z,34.00
2019-02-02T05:42:24.684Z,36.80
2019-02-02T05:43:24.704Z,35.50
2019-02-02T05:44:24.670Z,34.50
2019-02-02T05:45:24.668Z,42.50
2019-02-02T05:46:24.676Z,38.00
2019-02-02T05:47:24.655Z,34.90
2019-02-02T05:48:24.614Z,33.80
2019-02-02T05:49:24.645Z,32.00
2019-02-02T05:50:24.584Z,28.30
2019-02-02T05:51:24.571Z,31.90
2019-02-02T05:52:24.600Z,31.00
2019-02-02T05:53:24.551Z,31.50
2019-02-02T05:54:24.543Z,32.00
2019-02-02T05:55:24.531Z,30.20
2019-02-02T05:56:24.515Z,31.00
2019-02-02T05:57:24.540Z,31.60
2019-02-02T05:58:24.503Z,30.50
2019-02-02T05:59:24.485Z,29.70
2019-02-02T06:00:24.501Z,28.30
2019-02-02T06:01:24.470Z,32.70
2019-02-02T06:02:24.476Z,37.90
2019-02-02T06:03:24.437Z,49.30
2019-02-02T06:04:24.502Z,31.90
2019-02-02T06:05:24.433Z,29.70
2019-02-02T06:06:24.421Z,37.10
2019-02-02T06:07:24.396Z,31.40
2019-02-02T06:08:24.381Z,31.20
2019-02-02T06:09:24.395Z,29.80
2019-02-02T06:10:24.355Z,29.50
2019-02-02T06:11:24.354Z,28.20
2019-02-02T06:12:24.337Z,27.50
2019-02-02T06:13:24.325Z,27.70
2019-02-02T06:14:24.351Z,30.50
2019-02-02T06:15:24.327Z,28.20
2019-02-02T06:16:24.292Z,31.30
2019-02-02T06:17:24.284Z,28.80
2019-02-02T06:18:24.270Z,32.00
2019-02-02T06:19:24.287Z,35.40
2019-02-02T06:20:24.246Z,35.90
2019-02-02T06:21:24.275Z,33.70
2019-02-02T06:22:24.254Z,32.40
2019-02-02T06:23:24.223Z,31.80
2019-02-02T06:24:24.231Z,29.30
2019-02-02T06:25:24.199Z,32.20
2019-02-02T06:26:24.188Z,28.20
2019-02-02T06:27:24.166Z,28.70
2019-02-02T06:28:24.190Z,31.30
2019-02-02T06:29:24.179Z,30.50
2019-02-02T06:30:24.143Z,32.80
2019-02-02T06:31:24.126Z,31.10
2019-02-02T06:32:24.123Z,27.50
2019-02-02T06:33:24.123Z,34.90
2019-02-02T06:34:24.088Z,38.30
2019-02-02T06:35:24.105Z,29.10
2019-02-02T06:36:24.075Z,38.90
2019-02-02T06:37:24.055Z,31.80
2019-02-02T06:38:24.083Z,27.00
2019-02-02T06:39:24.042Z,26.70
2019-02-02T06:40:24.023Z,27.90
2019-02-02T06:41:24.014Z,30.80
2019-02-02T06:42:23.999Z,32.60
2019-02-02T06:43:24.046Z,33.10
2019-02-02T06:44:23.993Z,26.60
2019-02-02T06:45:23.982Z,26.50
2019-02-02T06:46:23.980Z,26.70
2019-02-02T06:47:23.969Z,27.40
2019-02-02T06:48:23.985Z,26.70
2019-02-02T06:49:23.922Z,34.10
2019-02-02T06:50:23.946Z,31.60
2019-02-02T06:51:23.905Z,33.50
2019-02-02T06:52:23.887Z,35.20
2019-02-02T06:53:23.939Z,32.60
2019-02-02T06:54:24.004Z,45.20
2019-02-02T06:55:23.855Z,36.50
2019-02-02T06:56:23.843Z,38.50
2019-02-02T06:57:23.841Z,34.20
2019-02-02T06:58:23.856Z,38.50
2019-02-02T06:59:23.817Z,38.10
2019-02-02T07:00:26.384Z,40.20
2019-02-02T07:01:23.800Z,43.20
2019-02-02T07:02:23.776Z,39.10
2019-02-02T07:03:23.794Z,52.60
2019-02-02T07:04:23.765Z,54.50
2019-02-02T07:05:23.747Z,47.00
2019-02-02T07:06:23.738Z,50.10
2019-02-02T07:07:23.749Z,121.80
2019-02-02T07:08:23.709Z,46.20
2019-02-02T07:09:23.701Z,49.30
2019-02-02T07:10:23.718Z,47.60
2019-02-02T07:11:23.680Z,50.90
2019-02-02T07:12:23.665Z,47.70
2019-02-02T07:13:23.656Z,48.70
2019-02-02T07:14:23.662Z,47.70
2019-02-02T07:15:23.688Z,42.90
2019-02-02T07:16:23.624Z,44.40
2019-02-02T07:17:23.638Z,49.10
2019-02-02T07:18:23.602Z,46.90
2019-02-02T07:19:23.589Z,42.40
2019-02-02T07:20:23.579Z,41.70
2019-02-02T07:21:23.568Z,41.50
2019-02-02T07:22:23.590Z,40.00
2019-02-02T07:23:23.547Z,45.90
2019-02-02T07:24:23.533Z,41.40
2019-02-02T07:25:23.521Z,44.90
2019-02-02T07:26:23.509Z,48.80
2019-02-02T07:27:23.539Z,45.70
2019-02-02T07:28:23.496Z,54.90
2019-02-02T07:29:23.483Z,50.60
2019-02-02T07:30:28.886Z,47.50
2019-02-02T07:31:24.455Z,51.90
2019-02-02T07:32:23.478Z,52.80
2019-02-02T07:33:23.431Z,50.60
2019-02-02T07:34:23.422Z,48.00
2019-02-02T07:35:23.412Z,41.30
2019-02-02T07:36:23.425Z,39.50
2019-02-02T07:37:23.414Z,36.10
2019-02-02T07:38:23.400Z,46.00
2019-02-02T07:39:23.382Z,52.90
2019-02-02T07:40:23.368Z,53.80
2019-02-02T07:41:23.345Z,43.30
2019-02-02T07:42:23.331Z,43.40
2019-02-02T07:43:23.353Z,45.90
2019-02-02T07:44:23.316Z,35.60
2019-02-02T07:45:23.341Z,33.90
2019-02-02T07:46:23.288Z,32.40
2019-02-02T07:47:23.297Z,32.00
2019-02-02T07:48:23.271Z,29.70
2019-02-02T07:49:23.279Z,29.50
2019-02-02T07:50:23.243Z,31.10
2019-02-02T07:51:23.263Z,30.70
2019-02-02T07:52:23.223Z,40.20
2019-02-02T07:53:23.214Z,31.40
2019-02-02T07:54:23.200Z,31.60
2019-02-02T07:55:23.189Z,33.00
2019-02-02T07:56:23.205Z,34.90
2019-02-02T07:57:23.174Z,43.40
2019-02-02T07:58:23.157Z,43.50
2019-02-02T07:59:23.142Z,33.80
2019-02-02T08:00:23.186Z,35.50
2019-02-02T08:01:23.157Z,35.90
2019-02-02T08:02:23.145Z,34.40
2019-02-02T08:03:23.103Z,32.20
2019-02-02T08:04:23.090Z,30.50
2019-02-02T08:05:23.127Z,34.10
2019-02-02T08:06:23.069Z,29.90
2019-02-02T08:07:23.056Z,34.90
2019-02-02T08:08:23.043Z,37.20
2019-02-02T08:09:23.043Z,39.90
2019-02-02T08:10:23.056Z,43.90
2019-02-02T08:11:23.008Z,43.30
2019-02-02T08:12:23.000Z,42.50
2019-02-02T08:13:23.006Z,35.60
2019-02-02T08:14:22.977Z,39.00
2019-02-02T08:15:22.991Z,38.20
2019-02-02T08:16:22.960Z,39.10
2019-02-02T08:17:22.969Z,36.30
2019-02-02T08:18:22.938Z,41.70
2019-02-02T08:19:25.611Z,38.10
2019-02-02T08:20:22.909Z,39.80
2019-02-02T08:21:22.898Z,49.90
2019-02-02T08:22:22.915Z,43.70
2019-02-02T08:23:22.877Z,41.80
2019-02-02T08:24:22.869Z,44.00
2019-02-02T08:25:22.874Z,74.90
2019-02-02T08:26:22.847Z,44.40
2019-02-02T08:27:22.977Z,62.80
2019-02-02T08:28:22.852Z,54.20
2019-02-02T08:29:22.823Z,46.20
2019-02-02T08:30:22.807Z,46.00
2019-02-02T08:31:22.901Z,50.30
2019-02-02T08:32:22.776Z,49.20
2019-02-02T08:33:22.794Z,44.90
2019-02-02T08:34:22.754Z,46.20
2019-02-02T08:35:22.748Z,42.60
2019-02-02T08:36:22.736Z,66.90
2019-02-02T08:37:22.725Z,49.90
2019-02-02T08:38:22.745Z,47.40
2019-02-02T08:39:29.129Z,45.10
2019-02-02T08:40:23.686Z,48.70
2019-02-02T08:41:22.715Z,49.00
2019-02-02T08:42:22.695Z,44.90
2019-02-02T08:43:22.661Z,57.70
2019-02-02T08:44:22.643Z,47.50
2019-02-02T08:45:22.641Z,60.90
2019-02-02T08:46:22.650Z,138.20
2019-02-02T08:47:22.624Z,57.50
2019-02-02T08:48:22.625Z,51.30
2019-02-02T08:49:22.590Z,59.30
2019-02-02T08:50:22.578Z,60.00
2019-02-02T08:51:22.608Z,51.20
2019-02-02T08:52:22.554Z,63.60
2019-02-02T08:53:22.546Z,56.60
2019-02-02T08:54:22.533Z,60.70
2019-02-02T08:55:22.523Z,49.40
2019-02-02T08:56:22.643Z,65.70
2019-02-02T08:57:22.580Z,64.40
2019-02-02T08:58:22.675Z,56.00
2019-02-02T08:59:22.478Z,65.80
2019-02-02T09:00:22.524Z,59.50
2019-02-02T09:01:22.460Z,71.40
2019-02-02T09:02:22.447Z,72.30
2019-02-02T09:03:22.438Z,50.30
2019-02-02T09:04:22.438Z,52.00
2019-02-02T09:05:22.440Z,70.40
2019-02-02T09:06:22.449Z,72.80
2019-02-02T09:07:22.445Z,47.50
2019-02-02T09:08:22.384Z,59.60
2019-02-02T09:09:22.370Z,71.90
2019-02-02T09:10:22.365Z,56.10
2019-02-02T09:11:22.349Z,71.90
2019-02-02T09:12:22.375Z,78.30
2019-02-02T09:13:22.326Z,56.30
2019-02-02T09:14:22.333Z,59.40
2019-02-02T09:15:22.306Z,60.80
2019-02-02T09:16:22.300Z,61.30
2019-02-02T09:17:22.314Z,70.50
2019-02-02T09:18:22.284Z,59.20
2019-02-02T09:19:22.264Z,56.40
2019-02-02T09:20:22.308Z,52.60
2019-02-02T09:21:22.241Z,54.00
2019-02-02T09:22:22.230Z,57.70
2019-02-02T09:23:22.222Z,59.10
2019-02-02T09:24:22.209Z,58.80
2019-02-02T09:25:22.237Z,60.40
2019-02-02T09:26:22.215Z,61.70
2019-02-02T09:27:22.181Z,66.40
2019-02-02T09:28:22.168Z,65.00
2019-02-02T09:29:22.157Z,54.70
2019-02-02T09:30:22.175Z,61.60
2019-02-02T09:31:22.134Z,64.20
2019-02-02T09:32:22.131Z,70.60
2019-02-02T09:33:22.140Z,57.90
2019-02-02T09:34:22.111Z,64.10
2019-02-02T09:35:22.094Z,63.90
2019-02-02T09:36:22.107Z,58.40
2019-02-02T09:37:22.072Z,51.00
2019-02-02T09:38:22.092Z,48.10
2019-02-02T09:39:22.053Z,54.10
2019-02-02T09:40:22.038Z,58.90
2019-02-02T09:41:22.030Z,52.40
2019-02-02T09:42:22.023Z,57.30
2019-02-02T09:43:22.119Z,49.90
2019-02-02T09:44:22.030Z,49.50
2019-02-02T09:45:22.005Z,66.40
2019-02-02T09:46:21.999Z,51.20
2019-02-02T09:47:21.983Z,50.00
2019-02-02T09:48:22.001Z,56.20
2019-02-02T09:49:21.967Z,52.70
2019-02-02T09:50:21.979Z,48.60
2019-02-02T09:51:21.946Z,45.70
2019-02-02T09:52:21.942Z,48.20
2019-02-02T09:53:21.909Z,51.70
2019-02-02T09:54:26.610Z,48.00
2019-02-02T09:55:22.898Z,44.80
2019-02-02T09:56:21.880Z,51.30
2019-02-02T09:57:21.867Z,44.40
2019-02-02T09:58:21.857Z,51.80
2019-02-02T09:59:21.871Z,45.40
2019-02-02T10:00:21.831Z,50.90
2019-02-02T10:01:27.824Z,45.70
2019-02-02T10:02:22.813Z,46.50
2019-02-02T10:03:21.810Z,48.60
2019-02-02T10:04:21.840Z,44.10
2019-02-02T10:05:21.788Z,39.30
2019-02-02T10:06:21.774Z,38.30
2019-02-02T10:07:21.770Z,37.20
2019-02-02T10:08:21.751Z,35.00
2019-02-02T10:09:21.765Z,39.20
2019-02-02T10:10:21.730Z,38.90
2019-02-02T10:11:21.720Z,37.90
2019-02-02T10:12:21.740Z,38.00
2019-02-02T10:13:21.735Z,38.60
2019-02-02T10:14:21.696Z,40.50
2019-02-02T10:15:21.708Z,40.60
2019-02-02T10:16:21.708Z,41.70
2019-02-02T10:17:21.699Z,39.00
2019-02-02T10:18:21.655Z,36.80
2019-02-02T10:19:21.653Z,44.80
2019-02-02T10:20:21.630Z,42.80
2019-02-02T10:21:21.667Z,36.40
2019-02-02T10:22:21.613Z,43.10
2019-02-02T10:23:21.630Z,38.40
2019-02-02T10:24:21.595Z,42.00
2019-02-02T10:25:21.578Z,41.30
2019-02-02T10:26:21.586Z,42.10
2019-02-02T10:27:21.560Z,38.70
2019-02-02T10:28:21.545Z,40.10
2019-02-02T10:29:21.542Z,40.20
2019-02-02T10:30:22.791Z,41.30
2019-02-02T10:31:21.542Z,42.00
2019-02-02T10:32:21.501Z,42.60
2019-02-02T10:33:21.505Z,38.70
2019-02-02T10:34:21.499Z,37.90
2019-02-02T10:35:21.522Z,39.70
2019-02-02T10:36:21.480Z,40.70
2019-02-02T10:37:21.449Z,42.10
2019-02-02T10:38:21.443Z,40.20
2019-02-02T10:39:21.436Z,40.20
2019-02-02T10:40:21.443Z,39.50
2019-02-02T10:41:21.421Z,43.40
2019-02-02T10:42:21.415Z,42.20
2019-02-02T10:43:21.418Z,39.40
2019-02-02T10:44:21.376Z,42.20
2019-02-02T10:45:21.368Z,37.50
2019-02-02T10:46:21.381Z,38.30
2019-02-02T10:47:21.352Z,43.20
2019-02-02T10:48:21.375Z,40.50
2019-02-02T10:49:21.330Z,40.80
2019-02-02T10:50:21.319Z,40.40
2019-02-02T10:51:21.431Z,39.70
2019-02-02T10:52:21.292Z,41.10
2019-02-02T10:53:21.323Z,45.50
2019-02-02T10:54:21.292Z,45.60
2019-02-02T10:55:21.268Z,40.50
2019-02-02T10:56:21.270Z,39.80
2019-02-02T10:57:21.241Z,40.30
2019-02-02T10:58:21.259Z,44.00
2019-02-02T10:59:21.252Z,47.10
2019-02-02T11:00:21.249Z,46.90
2019-02-02T11:01:21.206Z,39.40
2019-02-02T11:02:21.228Z,43.80
2019-02-02T11:03:21.186Z,39.70
2019-02-02T11:04:21.269Z,50.40
2019-02-02T11:05:21.177Z,50.80
2019-02-02T11:06:21.152Z,42.80
2019-02-02T11:07:21.168Z,39.50
2019-02-02T11:08:21.211Z,44.10
2019-02-02T11:09:21.178Z,39.90
2019-02-02T11:10:21.284Z,41.80
2019-02-02T11:11:21.198Z,37.10
2019-02-02T11:12:21.088Z,39.50
2019-02-02T11:13:21.220Z,45.80
2019-02-02T11:14:21.134Z,41.70
2019-02-02T11:15:21.071Z,42.80
2019-02-02T11:16:21.208Z,48.50
2019-02-02T11:17:21.057Z,54.00
2019-02-02T11:18:21.135Z,42.80
2019-02-02T11:19:21.148Z,45.60
2019-02-02T11:20:21.157Z,42.80
2019-02-02T11:21:20.993Z,50.90
2019-02-02T11:22:21.000Z,45.50
2019-02-02T11:23:21.020Z,46.60
2019-02-02T11:24:21.007Z,51.60
2019-02-02T11:25:21.010Z,49.80
2019-02-02T11:26:21.033Z,47.80
2019-02-02T11:27:20.930Z,48.00
2019-02-02T11:28:20.984Z,57.10
2019-02-02T11:29:20.924Z,54.20
2019-02-02T11:30:20.975Z,52.10
2019-02-02T11:31:20.918Z,47.50
2019-02-02T11:32:20.895Z,56.10
2019-02-02T11:33:20.873Z,53.10
2019-02-02T11:34:20.864Z,61.20
2019-02-02T11:35:20.848Z,57.20
2019-02-02T11:36:20.865Z,57.30
2019-02-02T11:37:20.916Z,57.60
2019-02-02T11:38:20.814Z,60.40
2019-02-02T11:39:20.851Z,69.10
2019-02-02T11:40:20.823Z,66.50
2019-02-02T11:41:20.809Z,65.40
2019-02-02T11:42:20.779Z,69.40
2019-02-02T11:43:20.796Z,52.70
2019-02-02T11:44:20.755Z,67.70
2019-02-02T11:45:20.741Z,63.90
2019-02-02T11:46:20.738Z,62.90
2019-02-02T11:47:20.726Z,68.50
2019-02-02T11:48:20.737Z,62.10
2019-02-02T11:49:23.814Z,71.80
2019-02-02T11:50:20.693Z,63.80
2019-02-02T11:51:20.682Z,58.00
2019-02-02T11:52:23.233Z,71.50
2019-02-02T11:53:20.684Z,68.40
2019-02-02T11:54:20.651Z,62.20
2019-02-02T11:55:20.685Z,58.00
2019-02-02T11:56:20.629Z,64.40
2019-02-02T11:57:20.657Z,77.60
2019-02-02T11:58:20.638Z,80.00
2019-02-02T11:59:20.597Z,65.90
2019-02-02T12:00:20.589Z,76.10
2019-02-02T12:01:20.581Z,68.80
2019-02-02T12:02:20.593Z,72.30
2019-02-02T12:03:20.559Z,80.80
2019-02-02T12:04:20.546Z,88.90
2019-02-02T12:05:20.538Z,69.40
2019-02-02T12:06:20.525Z,71.50
2019-02-02T12:07:20.555Z,83.00
2019-02-02T12:08:20.522Z,88.80
2019-02-02T12:09:20.505Z,83.80
2019-02-02T12:10:20.486Z,93.50
2019-02-02T12:11:20.493Z,79.00
2019-02-02T12:12:20.514Z,79.00
2019-02-02T12:13:20.518Z,84.60
2019-02-02T12:14:20.444Z,70.00
2019-02-02T12:15:20.435Z,93.10
2019-02-02T12:16:20.573Z,80.40
2019-02-02T12:17:20.448Z,90.00
2019-02-02T12:18:20.455Z,97.80
2019-02-02T12:19:20.421Z,88.00
2019-02-02T12:20:20.386Z,104.50
2019-02-02T12:21:20.371Z,103.80
2019-02-02T12:22:20.364Z,96.00
2019-02-02T12:23:20.379Z,88.60
2019-02-02T12:24:20.344Z,131.60
2019-02-02T12:25:20.334Z,145.10
2019-02-02T12:26:20.331Z,119.90
2019-02-02T12:27:20.311Z,106.10
2019-02-02T12:28:20.326Z,133.70
2019-02-02T12:29:20.287Z,130.20
2019-02-02T12:30:20.279Z,105.50
2019-02-02T12:31:20.274Z,100.20
2019-02-02T12:32:26.739Z,113.80
2019-02-02T12:33:21.276Z,100.40
2019-02-02T12:34:20.235Z,90.80
2019-02-02T12:35:20.236Z,80.50
2019-02-02T12:36:20.215Z,80.80
2019-02-02T12:37:20.203Z,106.80
2019-02-02T12:38:20.294Z,101.70
2019-02-02T12:39:20.195Z,101.50
2019-02-02T12:40:20.174Z,101.20
2019-02-02T12:41:20.173Z,95.10
2019-02-02T12:42:20.154Z,122.80
2019-02-02T12:43:20.183Z,104.00
2019-02-02T12:44:20.137Z,98.80
2019-02-02T12:45:20.122Z,119.30
2019-02-02T12:46:20.109Z,101.50
2019-02-02T12:47:20.814Z,93.40
2019-02-02T12:48:20.142Z,91.50
2019-02-02T12:49:20.117Z,85.90
2019-02-02T12:50:20.094Z,70.40
2019-02-02T12:51:20.059Z,69.70